Time;durP1;ratioP1;P1;durP2;ratioP2;P2;SDS_P1;SDS_P2;PMS_P1;PMS_P2;Temp;Humidity;BMP_temperature;BMP_pressure;BME280_temperature;BME280_humidity;BME280_pressure;Samples;Min_cycle;Max_cycle;Signal;HPM_P1;HPM_P2
2021/06/09 00:02:13;;;;;;;8.10;2.05;;;10.30;99.90;;;9.01;93.57;101923.03;4962321;28;20101;-76
2021/06/09 00:04:39;;;;;;;3.45;1.98;;;10.30;99.90;;;9.01;94.09;101917.78;4959186;28;20067;-77
2021/06/09 00:07:05;;;;;;;3.22;2.35;;;10.40;99.90;;;9.02;94.99;101916.88;4956600;28;20437;-77
2021/06/09 00:09:33;;;;;;;4.80;2.42;;;10.30;99.90;;;9.00;94.17;101921.28;4911267;28;20576;-77
2021/06/09 00:12:03;;;;;;;5.90;2.45;;;10.30;99.90;;;8.95;95.31;101920.53;4946713;28;20526;-77
2021/06/09 00:14:29;;;;;;;2.45;1.95;;;10.20;99.90;;;8.80;95.58;101919.94;4954721;28;20092;-77
2021/06/09 00:16:55;;;;;;;3.03;2.30;;;10.10;99.90;;;8.67;95.88;101925.50;4953745;28;20583;-77
2021/06/09 00:19:24;;;;;;;4.10;2.47;;;9.90;99.90;;;8.55;95.90;101922.22;4975806;28;20175;-77
2021/06/09 00:21:57;;;;;;;3.47;2.50;;;9.90;99.90;;;8.51;96.53;101924.91;4949586;28;20070;-77
2021/06/09 00:24:24;;;;;;;12.77;2.88;;;9.80;99.90;;;8.52;95.96;101916.13;4999730;28;20062;-77
2021/06/09 00:26:52;;;;;;;4.38;2.70;;;9.90;99.90;;;8.55;95.67;101919.59;4969968;28;20084;-78
2021/06/09 00:29:22;;;;;;;4.47;2.60;;;10.00;99.90;;;8.63;97.15;101907.16;4953622;28;20070;-77
2021/06/09 00:31:49;;;;;;;5.70;3.28;;;10.00;99.90;;;8.71;96.62;101912.25;4969245;28;20068;-77
2021/06/09 00:34:16;;;;;;;5.88;2.55;;;10.10;99.90;;;8.77;96.97;101908.66;4979909;28;20078;-77
2021/06/09 00:36:42;;;;;;;4.85;2.67;;;10.10;99.90;;;8.81;96.43;101903.31;4943248;28;20111;-77
2021/06/09 00:39:13;;;;;;;2.85;2.35;;;10.20;99.90;;;8.84;96.76;101905.00;4954540;28;20073;-77
2021/06/09 00:41:39;;;;;;;3.55;2.40;;;10.20;99.90;;;8.83;96.69;101911.13;4927106;28;20109;-77
2021/06/09 00:44:06;;;;;;;6.43;2.40;;;10.10;99.90;;;8.80;96.73;101914.69;4953432;28;20569;-78
2021/06/09 00:46:42;;;;;;;2.38;2.05;;;10.10;99.90;;;8.78;95.91;101907.75;5007468;28;20136;-77
2021/06/09 00:49:11;;;;;;;2.47;1.88;;;10.00;99.90;;;8.70;95.74;101907.88;4998376;28;20066;-77
2021/06/09 00:51:37;;;;;;;3.03;2.10;;;10.00;99.90;;;8.67;95.31;101914.97;4963455;28;20198;-77
2021/06/09 00:54:08;;;;;;;3.92;2.28;;;9.90;99.90;;;8.60;95.11;101915.09;4969366;28;20100;-77
2021/06/09 00:56:38;;;;;;;2.85;2.30;;;9.80;99.90;;;8.50;94.83;101913.53;4949659;28;20063;-77
2021/06/09 00:59:06;;;;;;;2.75;2.10;;;9.80;99.90;;;8.32;94.67;101909.47;4938061;28;20140;-77
2021/06/09 01:01:41;;;;;;;2.78;2.10;;;9.60;99.90;;;8.24;95.89;101913.13;4947709;28;20073;-77
2021/06/09 01:04:07;;;;;;;2.00;1.65;;;9.60;99.90;;;8.19;94.50;101918.47;4970692;28;20137;-77
2021/06/09 01:06:33;;;;;;;2.38;2.03;;;9.50;99.90;;;8.14;93.93;101917.66;4959134;28;21349;-77
2021/06/09 01:09:07;;;;;;;3.33;2.53;;;9.50;99.90;;;8.12;96.44;101915.09;4937834;28;20145;-78
2021/06/09 01:11:33;;;;;;;4.47;2.70;;;9.50;99.90;;;8.13;98.12;101911.56;4976642;28;20056;-78
2021/06/09 01:13:59;;;;;;;6.07;3.03;;;9.50;99.90;;;8.17;98.95;101912.38;4971723;28;20050;-77
2021/06/09 01:16:25;;;;;;;5.15;3.35;;;9.50;99.90;;;8.21;98.97;101907.03;4943132;28;20071;-78
2021/06/09 01:18:56;;;;;;;4.45;3.03;;;9.50;99.90;;;8.25;98.54;101910.47;4989171;28;20090;-78
2021/06/09 01:21:40;;;;;;;4.13;3.05;;;9.60;99.90;;;8.31;99.54;101912.13;4991890;28;20422;-78
2021/06/09 01:24:06;;;;;;;4.35;3.58;;;9.70;99.90;;;8.36;100.00;101911.16;4963966;28;20065;-78
2021/06/09 01:26:32;;;;;;;6.20;3.85;;;9.70;99.90;;;8.38;100.00;101908.47;4939346;28;20075;-78
2021/06/09 01:29:05;;;;;;;4.90;3.40;;;9.80;99.90;;;8.43;99.98;101917.19;4929815;28;20169;-78
2021/06/09 01:31:32;;;;;;;6.35;3.58;;;9.90;99.90;;;8.44;99.80;101912.78;4982026;28;20064;-78
2021/06/09 01:34:04;;;;;;;4.80;3.53;;;9.70;99.90;;;8.42;98.39;101918.06;4937268;28;20219;-78
2021/06/09 01:36:36;;;;;;;6.03;3.75;;;9.80;99.90;;;8.45;99.07;101912.78;4944725;28;20515;-78
2021/06/09 01:39:17;;;;;;;9.75;3.92;;;9.80;99.90;;;8.49;99.30;101916.19;4950707;28;20081;-77
2021/06/09 01:41:53;;;;;;;6.90;3.90;;;9.80;99.90;;;8.50;99.68;101913.53;5005819;28;20085;-77
2021/06/09 01:44:19;;;;;;;5.22;3.80;;;9.80;99.90;;;8.49;99.01;101916.19;4956895;28;20187;-78
2021/06/09 01:46:45;;;;;;;4.43;3.20;;;9.80;99.90;;;8.46;97.46;101916.25;4964970;28;20561;-78
2021/06/09 01:49:18;;;;;;;7.85;3.15;;;9.80;99.90;;;8.49;97.80;101921.44;4988918;28;20057;-78
2021/06/09 01:51:46;;;;;;;4.72;3.20;;;9.90;99.90;;;8.50;98.85;101920.56;4973877;28;20065;-78
2021/06/09 01:54:13;;;;;;;6.65;2.85;;;9.80;99.90;;;8.45;98.63;101923.28;4903152;28;20565;-78
2021/06/09 01:56:40;;;;;;;4.50;2.92;;;;;;;8.34;99.11;101915.56;4896849;28;20081;-78
2021/06/09 01:59:20;;;;;;;3.60;2.53;;;9.60;99.90;;;8.18;98.29;101925.44;4973217;28;20092;-77
2021/06/09 02:01:50;;;;;;;6.63;2.83;;;9.40;99.90;;;8.00;96.94;101915.28;4958656;28;20156;-78
2021/06/09 02:04:19;;;;;;;5.30;2.88;;;9.30;99.90;;;7.82;96.72;101916.47;4984030;28;20521;-78
2021/06/09 02:06:46;;;;;;;4.05;2.63;;;9.10;99.90;;;7.69;95.98;101914.91;4947308;28;20090;-78
2021/06/09 02:09:13;;;;;;;3.53;2.60;;;9.00;99.90;;;7.63;96.91;101915.03;4963447;28;20086;-78
2021/06/09 02:11:46;;;;;;;5.35;3.20;;;9.00;99.90;;;7.56;97.94;101911.63;4999935;28;20073;-78
2021/06/09 02:14:13;;;;;;;4.13;3.28;;;8.90;99.90;;;7.51;97.73;101914.28;4964004;28;20068;-78
2021/06/09 02:16:42;;;;;;;5.40;3.13;;;8.90;99.90;;;7.48;97.58;101910.88;4942839;28;20082;-78
2021/06/09 02:19:14;;;;;;;4.85;2.60;;;8.80;99.90;;;7.44;97.93;101906.56;5000571;28;20085;-78
2021/06/09 02:21:42;;;;;;;3.88;2.47;;;8.70;99.90;;;7.27;96.86;101910.28;4967775;28;20078;-78
2021/06/09 02:24:14;;;;;;;6.68;2.20;;;8.50;99.90;;;7.08;95.57;101919.25;4942435;28;20066;-78
2021/06/09 02:26:44;;;;;;;4.40;2.00;;;8.40;99.90;;;6.95;95.89;101910.69;4968488;28;20180;-78
2021/06/09 02:29:13;;;;;;;3.45;2.58;;;8.40;99.90;;;6.95;96.18;101910.69;4943234;28;20069;-78
2021/06/09 02:31:45;;;;;;;4.45;2.63;;;8.50;99.90;;;7.08;98.15;101906.16;4966812;28;20097;-78
2021/06/09 02:34:23;;;;;;;7.63;3.60;;;8.60;99.90;;;7.28;100.00;101911.13;4936895;28;20089;-77
2021/06/09 02:36:55;;;;;;;6.43;3.80;;;8.80;99.90;;;7.40;100.00;101906.59;4942086;28;20150;-78
2021/06/09 02:39:25;;;;;;;5.97;3.80;;;8.90;99.90;;;7.57;100.00;101914.19;4972633;28;20564;-78
2021/06/09 02:41:54;;;;;;;7.10;4.10;;;9.00;99.90;;;7.65;100.00;101906.25;4921662;28;20547;-78
2021/06/09 02:44:20;;;;;;;6.30;4.63;;;9.10;99.90;;;7.70;100.00;101903.53;4960882;28;20144;-78
2021/06/09 02:46:52;;;;;;;6.53;4.18;;;9.20;99.90;;;7.78;100.00;101902.53;4927785;28;20109;-78
2021/06/09 02:49:29;;;;;;;8.05;4.60;;;9.30;99.90;;;7.93;100.00;101901.41;4945798;28;20071;-78
2021/06/09 02:52:16;;;;;;;;;;;9.30;99.90;;;7.95;100.00;101899.63;4944025;28;20067;-78
2021/06/09 02:55:12;;;;;;;11.13;5.18;;;9.40;99.90;;;8.02;100.00;101898.63;4981176;28;20393;-78
2021/06/09 02:58:03;;;;;;;9.80;5.18;;;9.50;99.90;;;8.11;100.00;101899.34;4982469;28;20069;-78
2021/06/09 03:01:37;;;;;;;9.98;5.28;;;9.50;99.90;;;8.18;100.00;101895.72;4970642;28;20180;-78
2021/06/09 03:04:37;;;;;;;8.13;5.22;;;9.60;99.90;;;8.25;100.00;101897.38;4977412;28;20156;-78
2021/06/09 03:07:34;;;;;;;11.40;4.93;;;9.70;99.90;;;8.30;100.00;101894.66;4993608;28;20109;-78
2021/06/09 03:10:49;;;;;;;8.47;5.27;;;9.70;99.90;;;8.34;100.00;101898.97;4961432;28;20080;-77
2021/06/09 03:13:56;;;;;;;7.43;4.65;;;9.80;99.90;;;8.41;99.45;101890.09;4913681;28;20067;-78
2021/06/09 03:16:48;;;;;;;10.80;5.07;;;9.80;99.90;;;8.43;99.43;101892.69;4950245;28;20065;-78
2021/06/09 03:19:29;;;;;;;9.07;4.57;;;9.90;99.90;;;8.47;99.23;101895.22;4944194;28;20328;-78
2021/06/09 03:22:18;;;;;;;9.25;3.92;;;9.90;99.90;;;8.51;99.10;101893.38;4960109;28;20118;-78
2021/06/09 03:24:50;;;;;;;5.75;3.85;;;9.90;99.90;;;8.54;98.47;101890.72;4968325;28;20742;-78
2021/06/09 03:27:32;;;;;;;5.90;4.05;;;10.00;99.90;;;8.61;98.12;101884.44;4972882;28;20163;-78
2021/06/09 03:30:08;;;;;;;10.52;4.28;;;10.10;99.90;;;8.70;97.98;101883.41;5007886;28;20173;-78
2021/06/09 03:32:39;;;;;;;6.93;4.07;;;10.10;99.90;;;8.78;97.17;101886.75;4966117;28;20073;-78
2021/06/09 03:35:18;;;;;;;7.80;4.45;;;10.20;99.90;;;8.83;97.81;101880.50;4984424;28;20070;-78
2021/06/09 03:37:54;;;;;;;4.60;3.10;;;10.10;99.90;;;8.68;94.68;101886.03;4966520;28;20685;-78
2021/06/09 03:40:28;;;;;;;4.38;2.80;;;10.30;99.90;;;8.98;95.71;101883.69;4959895;28;20455;-78
2021/06/09 03:43:12;;;;;;;11.00;3.30;;;11.60;99.90;;;10.12;94.99;101884.47;4919096;28;20169;-78
2021/06/09 03:45:54;;;;;;;5.30;3.10;;;13.00;99.90;;;11.64;88.70;101880.06;4965881;28;20066;-78
2021/06/09 03:48:24;;;;;;;4.35;2.83;;;14.70;99.90;;;12.91;81.91;101879.13;4997255;28;20116;-78
2021/06/09 03:50:56;;;;;;;3.47;2.85;;;15.90;99.90;;;14.08;78.23;101871.81;4942689;28;20091;-78
2021/06/09 03:53:24;;;;;;;4.60;2.63;;;17.20;99.90;;;15.15;73.67;101877.59;4907592;28;21296;-78
2021/06/09 03:55:51;;;;;;;3.38;2.70;;;18.20;99.90;;;16.12;69.34;101864.84;4922173;28;20033;-78
2021/06/09 03:58:19;;;;;;;3.80;2.72;;;19.20;99.90;;;16.95;66.34;101871.09;4939685;28;20025;-78
2021/06/09 04:00:51;;;;;;;4.03;2.42;;;19.80;99.90;;;17.59;63.60;101866.56;4914292;28;20035;-78
2021/06/09 04:03:20;;;;;;;4.05;2.80;;;20.50;99.90;;;17.94;61.47;101869.00;4974066;28;20045;-78
2021/06/09 04:05:47;;;;;;;3.72;3.00;;;20.50;99.90;;;18.48;59.64;101876.41;4952069;28;20060;-78
2021/06/09 04:08:17;;;;;;;7.65;2.97;;;20.80;99.90;;;18.36;60.12;101877.19;4941838;28;20040;-79
2021/06/09 04:10:47;;;;;;;13.45;2.72;;;21.50;99.90;;;19.17;58.40;101869.41;4925637;28;20053;-78
2021/06/09 04:13:16;;;;;;;6.00;2.80;;;22.30;99.90;;;19.78;56.02;101875.22;4951633;28;20441;-78
2021/06/09 04:15:43;;;;;;;3.65;2.47;;;22.80;99.50;;;20.45;54.48;101874.22;4939361;28;20401;-78
2021/06/09 04:18:09;;;;;;;3.90;2.55;;;23.30;96.60;;;20.71;53.23;101860.84;4971614;28;20017;-78
2021/06/09 04:20:38;;;;;;;3.22;2.42;;;23.50;95.20;;;20.50;52.88;101872.09;4995491;28;20049;-78
2021/06/09 04:23:04;;;;;;;4.68;2.80;;;23.60;95.40;;;20.80;52.54;101873.56;4995488;28;20032;-78
2021/06/09 04:25:31;;;;;;;3.85;2.58;;;23.70;94.40;;;21.19;51.45;101874.34;4929413;28;20424;-78
2021/06/09 04:27:58;;;;;;;2.85;2.50;;;23.90;93.90;;;21.95;49.16;101874.94;4948933;28;20025;-78
2021/06/09 04:30:27;;;;;;;3.42;2.55;;;24.30;93.00;;;22.54;46.99;101880.16;4931349;28;20037;-78
2021/06/09 04:33:00;;;;;;;4.18;2.92;;;24.00;93.10;;;22.54;47.16;101874.81;4940450;28;20486;-78
2021/06/09 04:35:39;;;;;;;3.95;2.78;;;23.70;94.40;;;22.70;47.67;101880.66;4941841;28;20041;-78
2021/06/09 04:38:10;;;;;;;3.08;2.55;;;24.40;92.30;;;23.02;46.13;101873.69;4960464;28;20029;-78
2021/06/09 04:40:37;;;;;;;3.35;2.40;;;25.10;92.70;;;23.21;47.17;101863.16;4917096;28;20056;-78
2021/06/09 04:43:03;;;;;;;4.18;2.88;;;26.00;92.10;;;23.83;46.71;101875.03;4980352;28;20029;-78
2021/06/09 04:45:30;;;;;;;3.08;2.40;;;26.80;90.20;;;24.30;44.69;101880.88;5030656;28;20049;-78
2021/06/09 04:48:00;;;;;;;3.35;2.67;;;27.20;87.80;;;24.60;44.32;101873.84;4969792;28;20025;-78
2021/06/09 04:50:28;;;;;;;3.22;2.85;;;27.80;85.40;;;25.30;42.29;101871.22;4952995;28;20021;-78
2021/06/09 04:53:10;;;;;;;2.90;2.47;;;28.30;83.80;;;25.83;41.71;101883.41;4946937;28;20037;-79
2021/06/09 04:56:01;;;;;;;2.85;2.40;;;28.60;82.60;;;26.17;39.10;101881.97;4983157;28;20032;-78
2021/06/09 04:58:26;;;;;;;3.20;2.70;;;28.10;80.90;;;26.23;38.82;101871.59;5029903;28;20096;-78
2021/06/09 05:00:53;;;;;;;3.15;2.45;;;27.00;82.00;;;25.54;39.40;101874.34;4957800;28;20047;-79
2021/06/09 05:03:20;;;;;;;3.58;2.80;;;26.00;84.20;;;25.37;40.23;101873.19;4965792;28;20029;-78
2021/06/09 05:05:49;;;;;;;3.92;2.92;;;26.90;85.40;;;25.49;41.50;101867.69;4957013;28;20056;-78
2021/06/09 05:08:18;;;;;;;3.47;2.90;;;28.10;82.00;;;26.07;40.85;101866.78;4981507;28;20028;-78
2021/06/09 05:10:44;;;;;;;3.88;2.47;;;28.90;79.00;;;26.76;38.34;101866.44;4964691;28;20039;-78
2021/06/09 05:13:35;;;;;;;4.82;3.20;;;28.50;76.20;;;26.76;37.51;101871.84;4962460;28;20040;-78
2021/06/09 05:16:07;;;;;;;3.90;2.63;;;28.70;76.00;;;26.58;36.43;101873.63;4979682;28;20025;-78
2021/06/09 05:18:44;;;;;;;2.70;2.08;;;28.40;77.90;;;26.71;37.20;101871.44;4978598;28;20090;-78
2021/06/09 05:21:10;;;;;;;3.58;2.97;;;29.30;77.60;;;27.27;37.93;101869.56;4968079;28;20041;-78
2021/06/09 05:23:50;;;;;;;4.40;3.10;;;30.00;74.90;;;27.95;35.65;101871.72;4975283;28;20091;-78
2021/06/09 05:26:16;;;;;;;3.38;2.80;;;30.50;72.20;;;28.41;34.33;101875.03;4957548;28;20104;-78
2021/06/09 05:29:05;;;;;;;3.78;2.70;;;31.20;71.10;;;28.65;34.22;101870.78;4970293;28;20496;-79
2021/06/09 05:31:34;;;;;;;3.25;2.70;;;30.40;70.40;;;28.99;32.63;101859.91;4961569;28;20029;-78
2021/06/09 05:34:02;;;;;;;6.65;3.00;;;29.80;71.80;;;28.73;33.40;101872.72;4976129;28;20102;-79
2021/06/09 05:36:37;;;;;;;4.30;2.70;;;30.70;71.70;;;28.94;34.15;101869.53;4947242;28;20025;-78
2021/06/09 05:39:03;;;;;;;3.63;2.90;;;30.40;70.20;;;29.42;32.27;101868.84;4987269;28;20029;-78
2021/06/09 05:41:29;;;;;;;3.53;2.63;;;29.30;71.90;;;28.77;33.49;101872.22;4944334;28;20029;-78
2021/06/09 05:44:02;;;;;;;4.63;3.15;;;30.20;72.30;;;28.71;34.54;101872.00;4975435;28;20072;-78
2021/06/09 05:46:29;;;;;;;3.60;2.63;;;31.20;71.00;;;29.65;33.40;101866.31;4951987;28;20090;-78
2021/06/09 05:48:55;;;;;;;3.00;2.55;;;31.00;70.20;;;28.79;35.11;101862.06;4927182;28;20037;-78
2021/06/09 05:51:24;;;;;;;3.83;2.80;;;31.40;70.20;;;29.43;34.33;101869.69;4925972;28;20081;-78
2021/06/09 05:53:54;;;;;;;4.78;2.55;;;31.10;69.50;;;27.56;36.84;101868.47;4955722;28;20025;-78
2021/06/09 05:56:21;;;;;;;3.75;2.78;;;28.50;75.10;;;25.47;42.63;101870.50;4996105;28;20023;-78
2021/06/09 05:58:47;;;;;;;4.88;3.00;;;27.40;79.40;;;24.86;44.27;101867.94;4996543;28;20022;-78
2021/06/09 06:01:14;;;;;;;4.32;2.88;;;27.10;80.10;;;24.79;44.98;101872.19;5001670;28;20021;-78
2021/06/09 06:03:45;;;;;;;3.58;2.70;;;27.50;80.80;;;25.67;42.96;101873.22;4949891;28;20025;-78
2021/06/09 06:06:15;;;;;;;5.70;2.90;;;28.00;78.80;;;25.84;42.48;101863.53;4983929;28;20394;-78
2021/06/09 06:08:46;;;;;;;4.80;2.90;;;28.40;79.30;;;26.80;40.80;101872.38;4965254;28;20100;-78
2021/06/09 06:11:15;;;;;;;3.70;2.83;;;28.30;78.90;;;25.85;42.48;101879.56;4959722;28;21159;-78
2021/06/09 06:13:44;;;;;;;4.35;2.85;;;28.00;79.50;;;24.90;43.69;101880.16;4962553;28;20516;-78
2021/06/09 06:16:18;;;;;;;3.20;2.70;;;25.70;83.80;;;22.90;49.50;101875.53;4944042;28;20412;-78
2021/06/09 06:18:47;;;;;;;5.45;3.58;;;24.60;88.60;;;22.36;51.02;101884.31;4981575;28;20380;-77
2021/06/09 06:21:17;;;;;;;6.88;3.28;;;24.60;90.30;;;23.06;50.72;101877.84;4978369;28;20029;-77
2021/06/09 06:23:46;;;;;;;5.63;3.17;;;25.60;87.60;;;23.80;47.29;101880.69;4947784;28;20045;-78
2021/06/09 06:26:18;;;;;;;5.82;3.10;;;25.20;89.40;;;23.11;51.60;101878.34;4964015;28;20428;-78
2021/06/09 06:28:52;;;;;;;5.38;3.17;;;25.40;90.70;;;23.34;49.51;101879.13;4963955;28;20211;-78
2021/06/09 06:31:27;;;;;;;5.53;3.33;;;24.70;91.00;;;23.04;50.97;101883.34;4982104;28;20067;-78
2021/06/09 06:33:58;;;;;;;6.47;3.17;;;24.90;90.80;;;23.22;50.69;101872.06;4992205;28;20036;-77
2021/06/09 06:36:30;;;;;;;5.45;3.55;;;25.20;91.40;;;23.16;51.44;101875.28;4970311;28;20115;-78
2021/06/09 06:38:59;;;;;;;6.57;3.35;;;25.70;91.20;;;24.43;49.19;101883.34;4967211;28;20555;-78
2021/06/09 06:41:28;;;;;;;5.32;3.05;;;26.20;91.20;;;24.35;47.98;101884.00;5008640;28;20382;-78
2021/06/09 06:43:58;;;;;;;10.00;3.20;;;25.40;90.00;;;23.19;50.17;101888.44;4995946;28;20021;-77
2021/06/09 06:46:25;;;;;;;4.13;3.10;;;25.40;90.80;;;23.98;50.01;101882.81;4947833;28;20014;-78
2021/06/09 06:48:55;;;;;;;4.57;3.40;;;25.80;90.50;;;24.29;50.08;101879.16;5003048;28;20037;-78
2021/06/09 06:51:29;;;;;;;4.20;2.88;;;26.20;90.70;;;25.03;48.42;101878.06;4982646;28;20446;-78
2021/06/09 06:53:55;;;;;;;4.32;3.20;;;25.90;90.60;;;24.00;50.97;101881.69;4994576;28;20034;-77
2021/06/09 06:56:23;;;;;;;3.85;3.05;;;25.50;91.10;;;24.36;49.19;101880.34;4976669;28;20156;-78
2021/06/09 06:58:51;;;;;;;3.95;2.50;;;26.10;90.90;;;24.86;47.76;101881.41;4985124;28;20018;-78
2021/06/09 07:01:33;;;;;;;3.40;2.60;;;26.00;90.50;;;25.27;46.49;101876.88;4978078;28;20074;-78
2021/06/09 07:04:04;;;;;;;3.85;2.20;;;25.70;90.20;;;24.84;47.85;101875.31;4964432;28;20022;-78
2021/06/09 07:06:33;;;;;;;5.43;2.42;;;26.20;86.80;;;24.80;44.67;101873.91;4988885;28;20441;-78
2021/06/09 07:09:03;;;;;;;2.75;2.00;;;25.80;89.10;;;24.79;45.37;101880.28;5012143;28;20017;-77
2021/06/09 07:11:31;;;;;;;2.60;2.08;;;26.00;89.30;;;24.87;44.78;101873.22;4938801;28;20027;-78
2021/06/09 07:13:59;;;;;;;2.95;2.00;;;26.00;88.60;;;24.84;44.46;101872.63;4995526;28;20021;-77
2021/06/09 07:16:32;;;;;;;3.30;2.22;;;26.40;89.20;;;25.11;44.83;101886.31;4983931;28;24287;-78
2021/06/09 07:19:00;;;;;;;4.68;2.20;;;26.50;88.40;;;25.61;43.88;101879.16;4985005;28;21499;-78
2021/06/09 07:21:27;;;;;;;2.58;1.80;;;27.30;84.50;;;26.43;41.78;101875.91;4984015;28;20066;-78
2021/06/09 07:23:54;;;;;;;2.90;1.92;;;26.90;86.10;;;25.41;44.61;101884.56;4989386;28;20033;-77
2021/06/09 07:26:27;;;;;;;3.60;2.13;;;26.70;86.30;;;25.44;43.70;101881.56;4982169;28;20037;-77
2021/06/09 07:28:56;;;;;;;3.03;2.00;;;27.00;84.80;;;26.33;41.48;101881.38;5006776;28;20026;-78
2021/06/09 07:31:46;;;;;;;2.00;1.80;;;27.10;84.50;;;25.21;44.16;101888.22;4982376;28;20080;-77
2021/06/09 07:34:14;;;;;;;4.05;1.92;;;26.00;88.00;;;24.79;46.02;101889.19;4988767;28;20050;-78
2021/06/09 07:37:09;;;;;;;4.43;2.00;;;26.30;89.40;;;25.65;41.65;101885.97;4967445;28;20037;-80
2021/06/09 07:39:43;;;;;;;3.42;2.13;;;26.60;86.30;;;25.30;44.52;101887.38;4968765;28;20189;-78
2021/06/09 07:42:14;;;;;;;5.55;2.45;;;27.20;85.60;;;26.54;41.68;101889.25;4994115;28;20017;-77
2021/06/09 07:44:58;;;;;;;3.40;1.80;;;28.10;83.80;;;27.87;38.60;101892.47;4985094;28;20026;-78
2021/06/09 07:47:26;;;;;;;4.35;1.92;;;27.60;81.40;;;25.89;41.32;101891.81;4974523;28;20033;-76
2021/06/09 07:49:55;;;;;;;2.88;1.98;;;26.80;84.80;;;25.65;43.01;101880.59;4992761;28;20037;-77
2021/06/09 07:52:25;;;;;;;4.13;1.70;;;26.70;86.40;;;25.61;43.79;101885.41;4960547;28;20052;-83
2021/06/09 07:54:55;;;;;;;5.90;1.70;;;27.10;84.70;;;26.51;41.63;101888.69;4971492;28;20115;-78
2021/06/09 07:57:25;;;;;;;4.22;1.98;;;27.20;83.80;;;26.23;40.23;101888.63;4974528;28;20104;-77
2021/06/09 07:59:53;;;;;;;5.38;2.33;;;26.70;83.20;;;25.18;43.55;101890.19;4966947;28;20021;-77
2021/06/09 08:02:23;;;;;;;2.40;2.13;;;26.30;87.30;;;25.35;44.24;101887.81;4973610;28;20108;-77
2021/06/09 08:04:50;;;;;;;2.80;2.10;;;26.70;85.30;;;25.41;43.30;101886.41;4955596;28;20594;-77
2021/06/09 08:07:35;;;;;;;6.03;2.20;;;26.50;88.30;;;25.45;44.94;101885.97;4976817;28;20041;-77
2021/06/09 08:10:13;;;;;;;4.25;2.00;;;27.10;85.60;;;26.77;40.43;101884.34;4977269;28;20116;-78
2021/06/09 08:12:56;;;;;;;5.07;2.28;;;27.10;86.70;;;26.18;42.64;101888.22;4947052;28;20069;-78
2021/06/09 08:15:43;;;;;;;7.50;3.38;;;26.80;87.00;;;25.66;45.08;101887.66;4941818;28;20597;-77
2021/06/09 08:18:31;;;;;;;2.70;2.15;;;27.10;85.80;;;25.90;43.58;101893.53;4965789;28;20047;-77
2021/06/09 08:21:29;;;;;;;8.75;2.53;;;26.50;86.50;;;25.44;43.03;101902.28;4966602;28;20041;-77
2021/06/09 08:24:02;;;;;;;6.78;2.50;;;26.70;88.70;;;25.26;43.97;101896.75;4959674;28;20059;-77
2021/06/09 08:26:50;;;;;;;3.47;2.38;;;26.40;86.50;;;25.21;43.94;101904.41;4984084;28;20052;-77
2021/06/09 08:29:45;;;;;;;4.63;2.35;;;26.90;87.00;;;26.03;44.20;101898.63;4955531;28;20473;-78
2021/06/09 08:32:26;;;;;;;4.38;2.88;;;27.20;85.70;;;26.54;41.79;101893.78;4971643;28;20037;-78
2021/06/09 08:35:27;;;;;;;4.28;2.53;;;27.40;84.60;;;26.26;41.14;101895.59;4945077;28;20056;-77
2021/06/09 08:38:22;;;;;;;2.90;1.90;;;28.00;84.00;;;26.93;40.05;101890.94;4958616;28;20120;-77
2021/06/09 08:40:50;;;;;;;2.58;2.08;;;26.90;84.00;;;24.75;44.38;101895.84;4950319;28;20041;-77
2021/06/09 08:43:34;;;;;;;6.85;2.40;;;25.40;86.40;;;22.95;48.48;101900.16;4954164;28;20028;-77
2021/06/09 08:46:39;;;;;;;4.95;2.17;;;24.40;90.10;;;23.01;48.72;101883.59;4955394;28;20037;-77
2021/06/09 08:49:19;;;;;;;5.40;2.20;;;24.50;91.10;;;23.78;47.48;101892.53;4981964;28;20025;-77
2021/06/09 08:52:16;;;;;;;3.75;2.15;;;25.60;90.00;;;25.28;45.68;101886.66;4987102;28;20040;-78
2021/06/09 08:55:03;;;;;;;5.32;2.97;;;26.40;91.00;;;25.45;47.18;101885.13;4983703;28;20039;-78
2021/06/09 08:57:33;;;;;;;3.30;2.03;;;26.80;90.00;;;25.71;45.04;101888.13;4966253;28;20434;-78
2021/06/09 09:00:21;;;;;;;7.15;2.50;;;26.00;88.50;;;24.50;47.82;101889.94;4946311;28;20025;-77
2021/06/09 09:03:22;;;;;;;7.82;2.42;;;25.90;90.20;;;24.93;45.84;101886.13;4968340;28;20116;-77
2021/06/09 09:06:11;;;;;;;5.03;2.22;;;26.00;88.50;;;24.99;45.08;101884.75;4986897;28;20082;-77
2021/06/09 09:09:06;;;;;;;4.50;2.30;;;25.80;89.80;;;25.50;44.23;101888.25;4965386;28;20043;-77
2021/06/09 09:12:02;;;;;;;2.80;2.17;;;26.20;87.70;;;24.83;45.84;101889.78;4952597;28;20511;-77
2021/06/09 09:14:29;;;;;;;3.97;2.33;;;26.20;90.70;;;25.46;43.62;101884.13;4959465;28;20271;-77
2021/06/09 09:17:33;;;;;;;3.08;1.85;;;26.20;90.20;;;25.70;43.64;101879.19;4941065;28;20076;-78
2021/06/09 09:20:43;;;;;;;6.93;1.95;;;26.10;88.00;;;25.50;45.70;101896.34;4955213;28;20504;-77
2021/06/09 09:24:09;;;;;;;4.47;2.15;;;26.20;90.60;;;24.97;44.30;101889.41;4949550;28;20240;-77
2021/06/09 09:26:54;;;;;;;4.40;2.22;;;24.90;89.00;;;23.75;48.02;101896.31;4965500;28;20033;-77
2021/06/09 09:29:22;;;;;;;3.03;1.98;;;25.20;91.30;;;24.18;47.39;101892.69;4964552;28;20034;-78
2021/06/09 09:32:09;;;;;;;5.25;1.95;;;25.60;90.40;;;25.31;45.22;101889.06;4987512;28;20493;-78
2021/06/09 09:34:46;;;;;;;4.50;2.05;;;25.60;91.10;;;24.16;47.78;101902.75;4975615;28;20514;-77
2021/06/09 09:37:30;;;;;;;3.85;2.28;;;25.10;92.90;;;24.57;47.79;101911.78;4995246;28;20021;-77
2021/06/09 09:40:36;;;;;;;3.20;2.08;;;25.50;90.50;;;25.06;45.09;101893.97;4975036;28;20546;-77
2021/06/09 09:43:13;;;;;;;4.30;2.15;;;25.80;91.60;;;24.92;45.12;101894.34;4938739;28;20565;-76
2021/06/09 09:45:40;;;;;;;3.03;2.00;;;25.50;88.60;;;24.66;45.04;101900.19;4945496;28;20119;-76
2021/06/09 09:48:16;;;;;;;2.95;2.25;;;25.60;90.30;;;25.04;44.64;101895.94;4981474;28;20392;-77
2021/06/09 09:50:44;;;;;;;;;;;25.80;90.10;;;24.68;44.06;101903.63;4976474;28;20069;-77
2021/06/09 09:53:51;;;;;;;6.45;2.20;;;25.80;90.40;;;25.13;43.62;101905.88;4992268;28;20404;-77
2021/06/09 09:56:22;;;;;;;4.10;2.28;;;26.00;90.80;;;24.96;45.44;101899.31;4953023;28;20044;-77
2021/06/09 09:59:00;;;;;;;4.68;2.40;;;26.40;90.70;;;26.07;42.84;101897.34;4949939;28;20135;-77
2021/06/09 10:02:03;;;;;;;2.95;1.70;;;25.80;89.50;;;23.94;47.90;101907.25;4979133;28;20033;-77
2021/06/09 10:05:13;;;;;;;4.55;2.17;;;24.20;91.40;;;22.45;50.79;101907.75;4986629;28;20199;-77
2021/06/09 10:08:10;;;;;;;3.38;2.22;;;23.80;93.50;;;23.52;50.08;101896.41;4954495;28;20033;-78
2021/06/09 10:11:08;;;;;;;3.53;1.77;;;24.90;94.20;;;24.80;46.72;101892.75;4975094;28;20060;-77
2021/06/09 10:14:26;;;;;;;3.72;2.08;;;25.60;90.50;;;25.65;46.31;101885.97;4998523;28;20551;-77
2021/06/09 10:17:10;;;;;;;4.13;1.95;;;26.60;89.70;;;26.07;44.19;101881.16;4986276;28;20898;-77
2021/06/09 10:20:00;;;;;;;2.17;1.52;;;26.40;90.20;;;25.09;42.82;101887.44;4959952;28;20033;-76
2021/06/09 10:22:37;;;;;;;3.63;1.75;;;24.90;89.60;;;23.23;49.15;101895.28;4974259;28;20043;-77
2021/06/09 10:25:24;;;;;;;2.63;1.42;;;24.80;91.20;;;24.26;44.59;101894.75;4991272;28;20049;-77
2021/06/09 10:27:54;;;;;;;4.45;2.08;;;25.60;90.50;;;25.36;42.93;101876.03;4952281;28;20033;-77
2021/06/09 10:30:29;;;;;;;4.50;1.98;;;26.30;88.50;;;26.07;43.24;101874.88;4980535;28;20048;-77
2021/06/09 10:33:29;;;;;;;2.97;1.80;;;26.60;87.40;;;25.36;42.54;101879.59;4948758;28;20544;-76
2021/06/09 10:36:08;;;;;;;4.65;1.33;;;26.40;85.90;;;25.82;41.32;101887.97;4970651;28;20124;-77
2021/06/09 10:38:40;;;;;;;5.22;1.63;;;26.80;84.40;;;26.11;39.31;101877.16;4969921;28;20033;-77
2021/06/09 10:41:25;;;;;;;5.47;1.50;;;26.90;85.40;;;26.22;40.87;101868.06;4956188;28;20031;-77
2021/06/09 10:44:45;;;;;;;2.10;1.20;;;26.90;85.80;;;26.58;40.00;101860.97;4979701;28;20044;-77
2021/06/09 10:47:38;;;;;;;2.97;1.63;;;27.20;84.60;;;26.71;40.46;101868.72;4990362;28;20099;-77
2021/06/09 10:50:10;;;;;;;1.80;1.50;;;27.20;83.20;;;27.03;39.55;101864.72;4973548;28;20997;-77
2021/06/09 10:52:46;;;;;;;2.58;1.40;;;27.60;84.60;;;27.58;37.41;101864.63;5005183;28;20044;-76
2021/06/09 10:55:33;;;;;;;4.63;1.67;;;27.30;83.90;;;26.50;41.11;101862.69;4982605;28;20384;-77